Portree, United Kingdom
Current Conditions -  °F | °C
As of 5:20 AM on Saturday 20 Dec 2014 (Local Time) from EGPL Reporting Station
Few Clouds Few Clouds  
Wind Chill: 34°   Ceiling: Unl
Heat Index: 45°   Visibility: 6mi
Dew Point: 37°   Wind: 32mph
Humidity: 76%   Direction: 310°NW
Pressure: 29.88"   Gusts: 44mph
Location:  57.41°N, 6.19°W
Report Text: EGPL 200520Z AUTO 31028G38KT 9999 FEW045/// 07/03 Q1012
Loading
Personal Weather Stations






























Interactive Weather Map New forecast layout! Learn more

10-Day Weather Forecast

Advertisements
Track Severe Weather on mobile